createdAt,value
2022-09-09T00:02:08.563Z,99697.09
2022-09-09T00:04:39.342Z,99699.78
2022-09-09T00:07:07.489Z,99705.41
2022-09-09T00:09:47.002Z,99701.19
2022-09-09T00:12:17.267Z,99707.16
2022-09-09T00:15:28.491Z,99705.53
2022-09-09T00:18:02.334Z,99697.25
2022-09-09T00:20:55.672Z,99709.28
2022-09-09T00:23:26.760Z,99697.34
2022-09-09T00:26:05.532Z,99707.97
2022-09-09T00:28:35.306Z,99698.63
2022-09-09T00:31:19.377Z,99705.38
2022-09-09T00:33:46.843Z,99707.28
2022-09-09T00:36:16.721Z,99706.09
2022-09-09T00:38:46.989Z,99695.19
2022-09-09T00:41:29.065Z,99708.19
2022-09-09T00:44:01.786Z,99703.22
2022-09-09T00:46:35.324Z,99697.25
2022-09-09T00:49:11.082Z,99698.81
2022-09-09T00:52:01.837Z,99700.03
2022-09-09T00:54:37.896Z,99699.06
2022-09-09T00:57:12.658Z,99697.09
2022-09-09T00:59:54.108Z,99696.31
2022-09-09T01:02:33.428Z,99685.56
2022-09-09T01:05:07.039Z,99691.31
2022-09-09T01:07:33.951Z,99690.44
2022-09-09T01:10:02.095Z,99692.38
2022-09-09T01:12:44.651Z,99691.19
2022-09-09T01:15:25.787Z,99683.31
2022-09-09T01:17:56.455Z,99678.88
2022-09-09T01:21:14.341Z,99672.34
2022-09-09T01:23:41.065Z,99672.09
2022-09-09T01:26:38.004Z,99669.34
2022-09-09T01:29:19.166Z,99665.25
2022-09-09T01:31:56.874Z,99660.84
2022-09-09T01:34:26.447Z,99658.63
2022-09-09T01:37:10.628Z,99649.84
2022-09-09T01:39:40.196Z,99652.97
2022-09-09T01:42:12.277Z,99653.72
2022-09-09T01:44:41.336Z,99645.56
2022-09-09T01:47:08.839Z,99645.28
2022-09-09T01:49:43.306Z,99645.59
2022-09-09T01:52:19.926Z,99651.16
2022-09-09T01:54:46.735Z,99653.03
2022-09-09T01:57:29.644Z,99654.91
2022-09-09T02:00:12.583Z,99644.03
2022-09-09T02:02:45.688Z,99653.63
2022-09-09T02:05:28.971Z,99651.88
2022-09-09T02:08:08.245Z,99658.91
2022-09-09T02:11:20.473Z,99652.06
2022-09-09T02:14:23.169Z,99658.16
2022-09-09T02:16:56.413Z,99647.97
2022-09-09T02:19:33.089Z,99650.34
2022-09-09T02:22:06.479Z,99655.88
2022-09-09T02:24:36.380Z,99649.13
2022-09-09T02:27:23.866Z,99644.88
2022-09-09T02:29:52.499Z,99645.75
2022-09-09T02:32:26.584Z,99645.28
2022-09-09T02:34:57.614Z,99646.50
2022-09-09T02:37:29.511Z,99650.09
2022-09-09T02:40:01.730Z,99655.72
2022-09-09T02:42:29.466Z,99653.88
2022-09-09T02:44:58.029Z,99664.88
2022-09-09T02:47:35.954Z,99657.94
2022-09-09T02:50:22.113Z,99653.28
2022-09-09T02:53:14.167Z,99648.63
2022-09-09T02:55:47.866Z,99649.28
2022-09-09T02:58:20.594Z,99651.63
2022-09-09T03:01:04.381Z,99648.38
2022-09-09T03:03:32.294Z,99651.47
2022-09-09T03:06:01.115Z,99643.53
2022-09-09T03:08:28.743Z,99642.34
2022-09-09T03:10:59.844Z,99646.91
2022-09-09T03:13:28.427Z,99648.13
2022-09-09T03:15:55.006Z,99652.97
2022-09-09T03:18:22.184Z,99647.66
2022-09-09T03:20:52.106Z,99646.75
2022-09-09T03:23:20.350Z,99648.28
2022-09-09T03:25:51.177Z,99635.53
2022-09-09T03:28:21.903Z,99637.59
2022-09-09T03:30:50.165Z,99640.19
2022-09-09T03:33:19.588Z,99638.72
2022-09-09T03:35:50.402Z,99642.81
2022-09-09T03:38:19.164Z,99647.22
2022-09-09T03:40:58.356Z,99654.44
2022-09-09T03:43:26.651Z,99643.81
2022-09-09T03:45:57.812Z,99647.75
2022-09-09T03:48:26.779Z,99649.94
2022-09-09T03:50:54.150Z,99653.13
2022-09-09T03:53:22.706Z,99652.22
2022-09-09T03:55:53.598Z,99657.16
2022-09-09T03:58:20.193Z,99654.88
2022-09-09T04:01:01.112Z,99652.66
2022-09-09T04:03:28.700Z,99653.94
2022-09-09T04:05:57.526Z,99648.47
2022-09-09T04:08:28.983Z,99650.59
2022-09-09T04:10:58.764Z,99667.47
2022-09-09T04:13:27.341Z,99667.38
2022-09-09T04:15:56.125Z,99667.13
2022-09-09T04:18:25.156Z,99673.78
2022-09-09T04:20:53.349Z,99674.84
2022-09-09T04:23:22.848Z,99684.91
2022-09-09T04:26:01.864Z,99692.66
2022-09-09T04:28:32.080Z,99690.66
2022-09-09T04:31:08.795Z,99694.09
2022-09-09T04:33:40.197Z,99688.94
2022-09-09T04:36:08.998Z,99697.25
2022-09-09T04:38:36.091Z,99696.91
2022-09-09T04:41:03.668Z,99702.06
2022-09-09T04:43:31.738Z,99705.47
2022-09-09T04:46:00.376Z,99714.84
2022-09-09T04:48:27.427Z,99721.28
2022-09-09T04:51:01.266Z,99724.19
2022-09-09T04:53:29.465Z,99731.94
2022-09-09T04:56:16.725Z,99733.78
2022-09-09T04:58:56.400Z,99729.59
2022-09-09T05:01:28.229Z,99731.38
2022-09-09T05:04:01.745Z,99730.91
2022-09-09T05:06:28.315Z,99729.72
2022-09-09T05:09:00.727Z,99736.28
2022-09-09T05:11:33.214Z,99738.97
2022-09-09T05:14:19.942Z,99732.84
2022-09-09T05:16:48.068Z,99744.88
2022-09-09T05:19:15.084Z,99737.84
2022-09-09T05:21:47.589Z,99731.50
2022-09-09T05:24:17.831Z,99735.34
2022-09-09T05:26:46.198Z,99733.72
2022-09-09T05:29:13.114Z,99739.69
2022-09-09T05:31:40.278Z,99739.09
2022-09-09T05:34:11.099Z,99734.38
2022-09-09T05:36:37.794Z,99738.84
2022-09-09T05:39:04.690Z,99744.00
2022-09-09T05:41:34.917Z,99737.31
2022-09-09T05:44:04.464Z,99739.47
2022-09-09T05:46:35.642Z,99746.41
2022-09-09T05:49:03.952Z,99746.41
2022-09-09T05:51:32.589Z,99738.31
2022-09-09T05:54:04.788Z,99729.84
2022-09-09T05:56:34.817Z,99733.97
2022-09-09T05:59:01.955Z,99738.94
2022-09-09T06:01:39.331Z,99741.81
2022-09-09T06:04:06.242Z,99737.22
2022-09-09T06:06:39.431Z,99733.56
2022-09-09T06:09:12.400Z,99732.41
2022-09-09T06:11:42.439Z,99733.91
2022-09-09T06:14:09.702Z,99734.50
2022-09-09T06:16:40.200Z,99732.19
2022-09-09T06:19:13.909Z,99734.28
2022-09-09T06:21:41.852Z,99726.53
2022-09-09T06:24:14.649Z,99725.13
2022-09-09T06:26:42.133Z,99717.72
2022-09-09T06:29:11.536Z,99714.34
2022-09-09T06:31:42.397Z,99703.31
2022-09-09T06:34:24.126Z,99683.94
2022-09-09T06:36:54.730Z,99670.69
2022-09-09T06:39:22.528Z,99654.97
2022-09-09T06:41:49.560Z,99656.00
2022-09-09T06:44:54.628Z,99650.34
2022-09-09T06:47:29.802Z,99643.88
2022-09-09T06:49:58.098Z,99635.94
2022-09-09T06:52:25.917Z,99628.81
2022-09-09T06:54:54.719Z,99631.22
2022-09-09T06:57:38.421Z,99625.03
2022-09-09T07:00:11.807Z,99629.72
2022-09-09T07:02:40.084Z,99634.34
2022-09-09T07:05:10.436Z,99639.75
2022-09-09T07:07:37.898Z,99637.22
2022-09-09T07:10:05.807Z,99633.81
2022-09-09T07:12:32.544Z,99632.50
2022-09-09T07:15:01.221Z,99626.38
2022-09-09T07:17:29.304Z,99624.84
2022-09-09T07:19:57.807Z,99617.41
2022-09-09T07:22:24.484Z,99624.84
2022-09-09T07:24:51.289Z,99630.28
2022-09-09T07:27:20.500Z,99634.97
2022-09-09T07:29:49.154Z,99632.47
2022-09-09T07:32:16.342Z,99638.59
2022-09-09T07:34:43.694Z,99630.38
2022-09-09T07:37:12.721Z,99629.13
2022-09-09T07:39:42.109Z,99633.63
2022-09-09T07:42:12.105Z,99629.94
2022-09-09T07:44:40.562Z,99624.91
2022-09-09T07:47:11.331Z,99622.19
2022-09-09T07:49:47.164Z,99627.72
2022-09-09T07:52:19.585Z,99623.19
2022-09-09T07:54:49.937Z,99619.06
2022-09-09T07:57:19.467Z,99635.47
2022-09-09T07:59:47.633Z,99629.41
2022-09-09T08:02:14.504Z,99623.78
2022-09-09T08:04:41.477Z,99622.81
2022-09-09T08:07:08.254Z,99621.34
2022-09-09T08:09:44.831Z,99625.91
2022-09-09T08:12:17.777Z,99631.03
2022-09-09T08:14:44.633Z,99640.44
2022-09-09T08:17:11.327Z,99647.34
2022-09-09T08:19:38.475Z,99644.59
2022-09-09T08:22:10.542Z,99639.66
2022-09-09T08:24:40.291Z,99641.41
2022-09-09T08:27:14.992Z,99642.06
2022-09-09T08:29:42.153Z,99647.56
2022-09-09T08:32:09.717Z,99652.16
2022-09-09T08:34:41.234Z,99642.50
2022-09-09T08:37:12.126Z,99642.25
2022-09-09T08:39:41.128Z,99636.66
2022-09-09T08:42:29.360Z,99651.53
2022-09-09T08:45:03.307Z,99647.72
2022-09-09T08:47:50.324Z,99656.25
2022-09-09T08:50:28.978Z,99656.09
2022-09-09T08:53:08.930Z,99656.59
2022-09-09T08:55:46.788Z,99649.94
2022-09-09T08:58:21.581Z,99653.63
2022-09-09T09:01:09.218Z,99647.75
2022-09-09T09:03:51.557Z,99656.84
2022-09-09T09:06:39.695Z,99662.94
2022-09-09T09:09:31.397Z,99658.31
2022-09-09T09:12:02.462Z,99661.88
2022-09-09T09:14:36.628Z,99666.34
2022-09-09T09:17:16.222Z,99656.59
2022-09-09T09:19:44.400Z,99657.94
2022-09-09T09:22:41.401Z,99655.31
2022-09-09T09:25:19.012Z,99651.81
2022-09-09T09:28:02.506Z,99664.88
2022-09-09T09:30:36.411Z,99655.22
2022-09-09T09:33:15.412Z,99656.63
2022-09-09T09:35:44.313Z,99644.06
2022-09-09T09:41:08.071Z,99644.47
2022-09-09T09:43:38.217Z,99638.69
2022-09-09T09:46:24.529Z,99638.69
2022-09-09T09:49:07.458Z,99633.91
2022-09-09T09:51:35.462Z,99634.09
2022-09-09T09:54:14.335Z,99623.66
2022-09-09T09:56:42.394Z,99647.53
2022-09-09T09:59:38.828Z,99656.56
2022-09-09T10:02:19.498Z,99656.44
2022-09-09T10:04:50.282Z,99650.56
2022-09-09T10:07:20.080Z,99650.47
2022-09-09T10:09:58.779Z,99656.19
2022-09-09T10:12:47.687Z,99634.75
2022-09-09T10:15:44.832Z,99640.09
2022-09-09T10:18:34.477Z,99634.00
2022-09-09T10:21:28.845Z,99634.28
2022-09-09T10:24:08.394Z,99633.91
2022-09-09T10:26:45.995Z,99620.91
2022-09-09T10:29:45.607Z,99621.81
2022-09-09T10:32:41.146Z,99618.44
2022-09-09T10:35:37.771Z,99617.84
2022-09-09T10:38:18.125Z,99609.06
2022-09-09T10:40:49.723Z,99613.59
2022-09-09T10:43:23.125Z,99624.19
2022-09-09T10:46:00.320Z,99639.97
2022-09-09T10:48:32.978Z,99629.94
2022-09-09T10:51:21.380Z,99633.28
2022-09-09T10:53:59.106Z,99646.34
2022-09-09T10:56:27.498Z,99635.00
2022-09-09T10:59:04.472Z,99637.44
2022-09-09T11:01:53.574Z,99645.63
2022-09-09T11:04:23.922Z,99644.19
2022-09-09T11:06:55.322Z,99638.19
2022-09-09T11:09:30.566Z,99645.72
2022-09-09T11:11:58.374Z,99640.47
2022-09-09T11:14:34.048Z,99631.31
2022-09-09T11:17:17.877Z,99628.63
2022-09-09T11:19:45.292Z,99631.91
2022-09-09T11:22:34.680Z,99617.06
2022-09-09T11:25:16.783Z,99609.47
2022-09-09T11:28:07.334Z,99609.25
2022-09-09T11:30:56.438Z,99617.03
2022-09-09T11:33:48.155Z,99608.75
2022-09-09T11:36:17.689Z,99606.03
2022-09-09T11:38:47.944Z,99603.59
2022-09-09T11:41:20.898Z,99597.31
2022-09-09T11:43:53.283Z,99580.16
2022-09-09T11:46:22.636Z,99593.47
2022-09-09T11:49:03.289Z,99591.06
2022-09-09T11:51:36.772Z,99582.41
2022-09-09T11:54:31.053Z,99583.56
2022-09-09T11:57:00.724Z,99584.50
2022-09-09T11:59:32.281Z,99591.63
2022-09-09T12:02:04.401Z,99589.44
2022-09-09T12:04:34.338Z,99588.56
2022-09-09T12:07:20.794Z,99585.59
2022-09-09T12:10:00.841Z,99571.81
2022-09-09T12:12:47.634Z,99586.72
2022-09-09T12:15:17.174Z,99588.44
2022-09-09T12:17:51.683Z,99572.16
2022-09-09T12:20:23.481Z,99590.66
2022-09-09T12:23:00.874Z,99592.13
2022-09-09T12:25:37.018Z,99587.97
2022-09-09T12:28:17.553Z,99603.66
2022-09-09T12:30:50.279Z,99604.34
2022-09-09T12:33:20.076Z,99600.88
2022-09-09T12:36:01.568Z,99592.47
2022-09-09T12:38:35.236Z,99574.44
2022-09-09T12:41:02.131Z,99575.81
2022-09-09T12:43:29.266Z,99580.63
2022-09-09T12:46:04.619Z,99578.91
2022-09-09T12:48:38.124Z,99589.72
2022-09-09T12:51:06.875Z,99579.69
2022-09-09T12:53:35.899Z,99578.66
2022-09-09T12:56:05.628Z,99587.06
2022-09-09T12:58:35.793Z,99577.03
2022-09-09T13:01:06.071Z,99591.81
2022-09-09T13:03:34.250Z,99587.59
2022-09-09T13:06:13.973Z,99583.81
2022-09-09T13:08:44.454Z,99581.84
2022-09-09T13:11:16.510Z,99587.31
2022-09-09T13:13:43.607Z,99572.38
2022-09-09T13:16:24.047Z,99573.69
2022-09-09T13:18:50.824Z,99580.81
2022-09-09T13:21:17.986Z,99571.22
2022-09-09T13:23:50.199Z,99568.59
2022-09-09T13:26:23.707Z,99571.88
2022-09-09T13:28:50.590Z,99556.78
2022-09-09T13:31:40.143Z,99546.31
2022-09-09T13:34:28.387Z,99553.94
2022-09-09T13:37:00.579Z,99556.59
2022-09-09T13:39:27.195Z,99562.38
2022-09-09T13:41:54.211Z,99560.78
2022-09-09T13:44:28.515Z,99563.56
2022-09-09T13:47:24.498Z,99560.44
2022-09-09T13:49:51.199Z,99561.00
2022-09-09T13:52:19.772Z,99567.19
2022-09-09T13:54:50.870Z,99566.25
2022-09-09T13:57:26.089Z,99563.69
2022-09-09T14:00:06.294Z,99571.56
2022-09-09T14:02:33.754Z,99562.47
2022-09-09T14:05:00.465Z,99563.16
2022-09-09T14:07:27.759Z,99559.56
2022-09-09T14:09:54.523Z,99576.59
2022-09-09T14:12:21.220Z,99573.38
2022-09-09T14:14:47.872Z,99580.19
2022-09-09T14:17:15.438Z,99577.53
2022-09-09T14:19:42.007Z,99580.66
2022-09-09T14:22:08.706Z,99573.81
2022-09-09T14:24:35.388Z,99551.66
2022-09-09T14:27:02.118Z,99553.34
2022-09-09T14:29:28.695Z,99553.56
2022-09-09T14:31:55.403Z,99551.25
2022-09-09T14:34:22.092Z,99549.56
2022-09-09T14:36:52.464Z,99562.53
2022-09-09T14:39:19.269Z,99534.59
2022-09-09T14:41:46.732Z,99540.28
2022-09-09T14:44:13.398Z,99537.03
2022-09-09T14:46:39.989Z,99536.81
2022-09-09T14:49:06.662Z,99536.41
2022-09-09T14:51:33.321Z,99520.56
2022-09-09T14:54:00.491Z,99523.22
2022-09-09T14:56:30.149Z,99527.22
2022-09-09T14:58:58.353Z,99534.22
2022-09-09T15:01:30.253Z,99538.28
2022-09-09T15:04:01.711Z,99535.78
2022-09-09T15:06:31.025Z,99542.16
2022-09-09T15:09:00.406Z,99532.44
2022-09-09T15:11:28.928Z,99534.75
2022-09-09T15:13:55.682Z,99534.47
2022-09-09T15:16:24.976Z,99526.59
2022-09-09T15:18:54.073Z,99529.66
2022-09-09T15:21:23.411Z,99537.19
2022-09-09T15:23:50.743Z,99548.59
2022-09-09T15:26:18.052Z,99551.09
2022-09-09T15:28:45.968Z,99550.31
2022-09-09T15:31:20.809Z,99564.41
2022-09-09T15:34:01.406Z,99563.91
2022-09-09T15:36:39.192Z,99559.16
2022-09-09T15:39:08.742Z,99561.22
2022-09-09T15:41:35.655Z,99566.94
2022-09-09T15:44:02.645Z,99570.53
2022-09-09T15:46:41.481Z,99572.16
2022-09-09T15:49:18.678Z,99579.47
2022-09-09T15:51:47.313Z,99585.84
2022-09-09T15:54:19.173Z,99587.66
2022-09-09T15:56:48.892Z,99580.56
2022-09-09T15:59:15.811Z,99588.75
2022-09-09T16:01:43.978Z,99590.09
2022-09-09T16:04:11.189Z,99589.00
2022-09-09T16:06:37.897Z,99579.56
2022-09-09T16:09:08.668Z,99575.56
2022-09-09T16:11:38.019Z,99577.97
2022-09-09T16:14:06.312Z,99573.88
2022-09-09T16:16:33.212Z,99567.91
2022-09-09T16:19:02.248Z,99575.28
2022-09-09T16:21:31.643Z,99563.50
2022-09-09T16:24:08.650Z,99568.44
2022-09-09T16:26:37.782Z,99568.50
2022-09-09T16:29:04.598Z,99572.16
2022-09-09T16:31:33.160Z,99573.19
2022-09-09T16:34:00.031Z,99572.50
2022-09-09T16:36:29.359Z,99578.84
2022-09-09T16:38:58.427Z,99581.59
2022-09-09T16:41:26.737Z,99589.69
2022-09-09T16:43:58.153Z,99593.34
2022-09-09T16:46:25.491Z,99598.81
2022-09-09T16:48:52.968Z,99601.38
2022-09-09T16:51:37.885Z,99598.97
2022-09-09T16:54:09.846Z,99609.88
2022-09-09T16:56:39.122Z,99621.59
2022-09-09T16:59:08.708Z,99615.91
2022-09-09T17:01:38.504Z,99623.78
2022-09-09T17:04:08.384Z,99626.50
2022-09-09T17:06:35.628Z,99622.44
2022-09-09T17:09:05.673Z,99636.00
2022-09-09T17:11:32.349Z,99633.78
2022-09-09T17:14:01.652Z,99640.84
2022-09-09T17:16:32.224Z,99650.03
2022-09-09T17:19:04.167Z,99663.59
2022-09-09T17:21:31.841Z,99725.31
2022-09-09T17:23:59.092Z,99712.88
2022-09-09T17:26:28.659Z,99700.91
2022-09-09T17:28:59.441Z,99723.84
2022-09-09T17:31:28.474Z,99727.06
2022-09-09T17:33:55.725Z,99723.13
2022-09-09T17:36:25.501Z,99728.38
2022-09-09T17:38:52.881Z,99733.13
2022-09-09T17:41:27.695Z,99754.41
2022-09-09T17:43:55.477Z,99764.50
2022-09-09T17:46:23.747Z,99781.13
2022-09-09T17:48:56.864Z,99777.28
2022-09-09T17:51:25.956Z,99788.59
2022-09-09T17:53:55.770Z,99784.81
2022-09-09T17:56:23.736Z,99792.25
2022-09-09T17:58:50.885Z,99786.88
2022-09-09T18:01:23.156Z,99799.53
2022-09-09T18:03:51.004Z,99798.53
2022-09-09T18:06:24.203Z,99803.28
2022-09-09T18:08:53.046Z,99801.56
2022-09-09T18:11:21.668Z,99805.41
2022-09-09T18:13:56.730Z,99801.72
2022-09-09T18:16:24.770Z,99794.94
2022-09-09T18:18:51.874Z,99785.41
2022-09-09T18:21:20.148Z,99795.19
2022-09-09T18:23:49.447Z,99788.91
2022-09-09T18:26:19.086Z,99808.25
2022-09-09T18:28:49.711Z,99804.75
2022-09-09T18:31:19.035Z,99817.69
2022-09-09T18:33:46.935Z,99823.06
2022-09-09T18:36:17.027Z,99823.88
2022-09-09T18:38:46.874Z,99826.47
2022-09-09T18:41:13.613Z,99830.50
2022-09-09T18:43:40.189Z,99835.22
2022-09-09T18:46:07.031Z,99844.47
2022-09-09T18:48:33.927Z,99839.56
2022-09-09T18:51:10.689Z,99849.56
2022-09-09T18:53:37.635Z,99850.63
2022-09-09T18:56:06.334Z,99844.81
2022-09-09T18:58:33.997Z,99846.09
2022-09-09T19:01:01.668Z,99838.41
2022-09-09T19:03:30.209Z,99843.72
2022-09-09T19:06:07.481Z,99841.38
2022-09-09T19:08:34.906Z,99836.03
2022-09-09T19:11:03.005Z,99840.28
2022-09-09T19:13:29.764Z,99844.75
2022-09-09T19:15:56.500Z,99841.72
2022-09-09T19:18:23.797Z,99839.75
2022-09-09T19:20:50.396Z,99836.25
2022-09-09T19:23:16.981Z,99838.50
2022-09-09T19:25:43.605Z,99856.28
2022-09-09T19:28:10.165Z,99841.28
2022-09-09T19:30:38.711Z,99853.84
2022-09-09T19:33:08.277Z,99842.91
2022-09-09T19:35:34.881Z,99847.50
2022-09-09T19:38:01.780Z,99845.88
2022-09-09T19:40:29.295Z,99857.72
2022-09-09T19:42:59.412Z,99849.94
2022-09-09T19:45:27.615Z,99856.28
2022-09-09T19:47:54.482Z,99858.19
2022-09-09T19:50:21.075Z,99859.81
2022-09-09T19:52:48.359Z,99854.66
2022-09-09T19:55:15.041Z,99858.75
2022-09-09T19:57:43.946Z,99858.91
2022-09-09T20:00:11.427Z,99852.22
2022-09-09T20:02:40.657Z,99865.59
2022-09-09T20:05:07.790Z,99862.31
2022-09-09T20:07:37.514Z,99861.50
2022-09-09T20:10:04.391Z,99863.59
2022-09-09T20:12:31.031Z,99863.38
2022-09-09T20:14:57.613Z,99865.25
2022-09-09T20:17:34.640Z,99861.88
2022-09-09T20:20:03.990Z,99859.19
2022-09-09T20:22:30.579Z,99863.63
2022-09-09T20:24:59.470Z,99858.50
2022-09-09T20:27:28.385Z,99873.38
2022-09-09T20:29:56.510Z,99872.56
2022-09-09T20:32:27.758Z,99875.97
2022-09-09T20:34:58.024Z,99875.59
2022-09-09T20:37:34.728Z,99865.53
2022-09-09T20:40:09.174Z,99867.66
2022-09-09T20:42:35.802Z,99873.25
2022-09-09T20:45:02.466Z,99870.56
2022-09-09T20:47:30.286Z,99869.97
2022-09-09T20:50:01.739Z,99877.13
2022-09-09T20:52:28.425Z,99861.44
2022-09-09T20:54:57.253Z,99863.31
2022-09-09T20:57:24.488Z,99868.72
2022-09-09T21:00:04.037Z,99866.50
2022-09-09T21:02:30.670Z,99867.53
2022-09-09T21:04:57.315Z,99867.50
2022-09-09T21:07:23.903Z,99858.75
2022-09-09T21:09:50.495Z,99866.94
2022-09-09T21:12:17.040Z,99859.09
2022-09-09T21:14:43.617Z,99859.91
2022-09-09T21:17:10.283Z,99865.31
2022-09-09T21:19:37.590Z,99863.69
2022-09-09T21:22:04.215Z,99863.31
2022-09-09T21:24:30.875Z,99865.66
2022-09-09T21:26:57.498Z,99868.56
2022-09-09T21:29:24.256Z,99872.78
2022-09-09T21:31:50.845Z,99872.78
2022-09-09T21:34:18.401Z,99882.41
2022-09-09T21:36:44.968Z,99881.44
2022-09-09T21:39:11.583Z,99877.25
2022-09-09T21:41:38.300Z,99878.66
2022-09-09T21:44:04.899Z,99881.00
2022-09-09T21:46:31.832Z,99877.94
2022-09-09T21:48:58.509Z,99875.41
2022-09-09T21:51:25.150Z,99882.63
2022-09-09T21:53:55.037Z,99877.13
2022-09-09T21:56:21.689Z,99888.50
2022-09-09T21:58:48.288Z,99888.03
2022-09-09T22:01:17.736Z,99886.03
2022-09-09T22:03:45.212Z,99895.06
2022-09-09T22:06:14.323Z,99888.13
2022-09-09T22:08:40.908Z,99894.34
2022-09-09T22:11:09.334Z,99898.34
2022-09-09T22:13:38.299Z,99901.13
2022-09-09T22:16:06.562Z,99896.56
2022-09-09T22:18:34.620Z,99900.31
2022-09-09T22:21:06.552Z,99904.88
2022-09-09T22:23:33.165Z,99898.78
2022-09-09T22:26:00.038Z,99901.94
2022-09-09T22:28:26.683Z,99899.97
2022-09-09T22:30:53.318Z,99902.88
2022-09-09T22:33:21.588Z,99902.28
2022-09-09T22:35:50.626Z,99907.09
2022-09-09T22:38:17.282Z,99899.97
2022-09-09T22:40:57.687Z,99907.00
2022-09-09T22:43:25.096Z,99909.31
2022-09-09T22:45:51.798Z,99909.00
2022-09-09T22:48:18.719Z,99908.16
2022-09-09T22:50:46.973Z,99907.09
2022-09-09T22:53:17.911Z,99912.75
2022-09-09T22:55:57.397Z,99922.31
2022-09-09T22:58:26.469Z,99914.81
2022-09-09T23:00:53.127Z,99916.47
2022-09-09T23:03:22.513Z,99923.63
2022-09-09T23:06:10.063Z,99924.69
2022-09-09T23:08:37.788Z,99917.19
2022-09-09T23:11:09.334Z,99923.16
2022-09-09T23:13:39.933Z,99930.06
2022-09-09T23:16:17.339Z,99919.06
2022-09-09T23:18:44.301Z,99919.28
2022-09-09T23:21:12.308Z,99926.53
2022-09-09T23:23:41.250Z,99925.97
2022-09-09T23:26:09.734Z,99924.53
2022-09-09T23:28:38.448Z,99925.00
2022-09-09T23:31:10.607Z,99921.75
2022-09-09T23:33:41.415Z,99925.25
2022-09-09T23:36:11.614Z,99923.41
2022-09-09T23:38:39.372Z,99930.91
2022-09-09T23:41:09.496Z,99920.31
2022-09-09T23:43:39.471Z,99919.06
2022-09-09T23:46:17.290Z,99922.47
2022-09-09T23:48:44.038Z,99923.03
2022-09-09T23:51:17.668Z,99916.22
2022-09-09T23:53:45.642Z,99913.78
2022-09-09T23:56:12.625Z,99907.81
2022-09-09T23:58:39.434Z,99918.47
